Time;durP1;ratioP1;P1;durP2;ratioP2;P2;SDS_P1;SDS_P2;PMS_P1;PMS_P2;Temp;Humidity;BMP_temperature;BMP_pressure;BME280_temperature;BME280_humidity;BME280_pressure;Samples;Min_cycle;Max_cycle;Signal;HPM_P1;HPM_P2
2023/07/12 00:00:17;;;;;;;;;;;24.90;53.80;;;;;;5059297;28;19931;-57
2023/07/12 00:02:44;;;;;;;;;;;24.90;53.70;;;;;;5058341;28;19927;-57
2023/07/12 00:05:11;;;;;;;;;;;24.90;53.70;;;;;;5058851;28;19924;-58
2023/07/12 00:07:38;;;;;;;;;;;24.90;53.70;;;;;;5060425;28;19921;-58
2023/07/12 00:10:10;;;;;;;;;;;24.90;53.70;;;;;;5075620;28;19920;-58
2023/07/12 00:12:38;;;;;;;;;;;24.90;53.80;;;;;;5057519;28;19924;-57
2023/07/12 00:15:05;;;;;;;;;;;24.90;53.80;;;;;;5058226;28;19932;-58
2023/07/12 00:17:32;;;;;;;;;;;24.90;53.80;;;;;;5057501;28;19978;-57
2023/07/12 00:19:59;;;;;;;;;;;24.90;53.80;;;;;;5075253;28;19967;-57
2023/07/12 00:22:25;;;;;;;;;;;24.90;53.90;;;;;;5056971;28;19920;-58
2023/07/12 00:24:52;;;;;;;;;;;24.90;53.90;;;;;;5057539;28;19992;-58
2023/07/12 00:27:19;;;;;;;;;;;24.90;53.90;;;;;;5075079;28;19920;-57
2023/07/12 00:29:47;;;;;;;;;;;24.90;53.90;;;;;;5056865;28;19924;-58
2023/07/12 00:32:14;;;;;;;;;;;24.90;53.90;;;;;;5057256;28;19931;-58
2023/07/12 00:34:41;;;;;;;;;;;24.90;53.90;;;;;;5057215;28;19992;-58
2023/07/12 00:37:11;;;;;;;;;;;24.90;53.90;;;;;;5059038;28;19926;-58
2023/07/12 00:39:38;;;;;;;;;;;24.90;54.00;;;;;;5076882;28;19973;-58
2023/07/12 00:42:07;;;;;;;;;;;24.90;54.10;;;;;;5057269;28;19974;-58
2023/07/12 00:44:35;;;;;;;;;;;24.90;54.20;;;;;;5062484;28;19921;-58
2023/07/12 00:47:04;;;;;;;;;;;24.90;54.20;;;;;;5017496;28;19925;-57
2023/07/12 00:49:30;;;;;;;;;;;24.90;54.30;;;;;;5035105;28;19922;-57
2023/07/12 00:52:00;;;;;;;;;;;24.90;54.40;;;;;;5016373;28;19921;-58
2023/07/12 00:54:27;;;;;;;;;;;24.90;54.60;;;;;;5034624;28;19921;-58
2023/07/12 00:56:54;;;;;;;;;;;24.90;54.70;;;;;;5057204;28;19920;-58
2023/07/12 00:59:21;;;;;;;;;;;24.90;54.70;;;;;;5041165;28;20381;-58
2023/07/12 01:01:48;;;;;;;;;;;24.90;54.80;;;;;;5039516;28;19920;-57
2023/07/12 01:04:17;;;;;;;;;;;24.80;54.80;;;;;;5022959;28;19921;-57
2023/07/12 01:06:44;;;;;;;;;;;24.90;54.90;;;;;;5057030;28;19920;-58
2023/07/12 01:09:13;;;;;;;;;;;24.90;55.00;;;;;;5040262;28;19925;-57
2023/07/12 01:11:40;;;;;;;;;;;24.90;55.10;;;;;;5040433;28;20004;-59
2023/07/12 01:14:09;;;;;;;;;;;24.90;55.10;;;;;;5038535;28;19991;-57
2023/07/12 01:16:36;;;;;;;;;;;24.80;55.10;;;;;;5036711;28;19995;-57
2023/07/12 01:19:03;;;;;;;;;;;24.80;55.60;;;;;;5037670;28;19921;-58
2023/07/12 01:21:33;;;;;;;;;;;24.90;55.30;;;;;;5057605;28;20074;-58
2023/07/12 01:24:00;;;;;;;;;;;24.80;55.20;;;;;;5039107;28;19927;-58
2023/07/12 01:26:33;;;;;;;;;;;24.80;55.20;;;;;;5056716;28;19921;-59
2023/07/12 01:29:01;;;;;;;;;;;24.80;55.20;;;;;;5039618;28;19920;-58
2023/07/12 01:31:29;;;;;;;;;;;24.80;55.20;;;;;;5039172;28;19967;-59
2023/07/12 01:33:56;;;;;;;;;;;24.80;55.30;;;;;;5039071;28;19921;-57
2023/07/12 01:36:24;;;;;;;;;;;24.80;55.40;;;;;;5039660;28;19920;-58
2023/07/12 01:38:53;;;;;;;;;;;24.80;55.40;;;;;;5039860;28;19921;-58
2023/07/12 01:41:20;;;;;;;;;;;24.80;55.50;;;;;;5038972;28;19921;-58
2023/07/12 01:43:48;;;;;;;;;;;24.80;55.40;;;;;;5039039;28;20012;-57
2023/07/12 01:46:15;;;;;;;;;;;24.80;55.60;;;;;;5037988;28;19932;-59
2023/07/12 01:48:43;;;;;;;;;;;24.80;55.90;;;;;;5037352;28;20113;-58
2023/07/12 01:51:10;;;;;;;;;;;24.80;56.10;;;;;;5038361;28;19920;-57
2023/07/12 01:53:37;;;;;;;;;;;24.80;56.50;;;;;;5038623;28;19943;-57
2023/07/12 01:56:07;;;;;;;;;;;24.70;56.40;;;;;;5039193;28;19921;-58
2023/07/12 01:58:33;;;;;;;;;;;24.70;56.50;;;;;;5038248;28;19943;-57
2023/07/12 02:01:00;;;;;;;;;;;24.70;56.60;;;;;;5039024;28;19928;-58
2023/07/12 02:03:27;;;;;;;;;;;24.70;56.70;;;;;;5039247;28;19921;-59
2023/07/12 02:05:54;;;;;;;;;;;24.60;56.70;;;;;;5055468;28;19927;-58
2023/07/12 02:08:21;;;;;;;;;;;24.60;56.70;;;;;;5055979;28;19920;-59
2023/07/12 02:10:48;;;;;;;;;;;24.70;56.80;;;;;;5038526;28;19920;-58
2023/07/12 02:13:16;;;;;;;;;;;24.60;56.70;;;;;;5036632;28;19928;-60
2023/07/12 02:15:43;;;;;;;;;;;24.60;56.70;;;;;;5023022;28;20005;-58
2023/07/12 02:18:10;;;;;;;;;;;24.60;56.70;;;;;;5040533;28;19921;-58
2023/07/12 02:20:37;;;;;;;;;;;24.60;56.80;;;;;;5041019;28;19921;-58
2023/07/12 02:23:04;;;;;;;;;;;24.60;56.80;;;;;;5058592;28;19921;-58
2023/07/12 02:25:32;;;;;;;;;;;24.60;56.90;;;;;;5040282;28;19928;-58
2023/07/12 02:27:59;;;;;;;;;;;24.60;57.00;;;;;;5041263;28;19920;-58
2023/07/12 02:30:28;;;;;;;;;;;24.60;57.00;;;;;;5042212;28;19927;-59
2023/07/12 02:32:56;;;;;;;;;;;24.60;57.00;;;;;;5043213;28;19921;-58
2023/07/12 02:35:27;;;;;;;;;;;24.60;57.00;;;;;;5043338;28;19920;-58
2023/07/12 02:37:54;;;;;;;;;;;24.50;57.10;;;;;;5040759;28;19931;-58
2023/07/12 02:40:21;;;;;;;;;;;24.50;57.00;;;;;;5057380;28;19921;-57
2023/07/12 02:42:48;;;;;;;;;;;24.50;57.00;;;;;;5039856;28;19970;-57
2023/07/12 02:45:15;;;;;;;;;;;24.50;57.00;;;;;;5040179;28;19924;-59
2023/07/12 02:47:43;;;;;;;;;;;24.50;57.00;;;;;;5059183;28;19921;-58
2023/07/12 02:50:11;;;;;;;;;;;24.50;57.00;;;;;;5041539;28;19927;-58
2023/07/12 02:52:37;;;;;;;;;;;24.50;57.00;;;;;;5041484;28;19924;-58
2023/07/12 02:55:05;;;;;;;;;;;24.50;56.90;;;;;;5040898;28;19921;-57
2023/07/12 02:57:32;;;;;;;;;;;24.50;56.90;;;;;;5059566;28;19967;-57
2023/07/12 02:59:59;;;;;;;;;;;24.50;56.90;;;;;;5041061;28;19971;-58
2023/07/12 03:02:26;;;;;;;;;;;24.50;56.80;;;;;;5057974;28;19928;-58
2023/07/12 03:04:54;;;;;;;;;;;24.50;56.80;;;;;;5041401;28;19921;-58
2023/07/12 03:07:22;;;;;;;;;;;24.50;56.70;;;;;;5039459;28;19921;-57
2023/07/12 03:09:49;;;;;;;;;;;24.50;56.70;;;;;;5038823;28;19970;-57
2023/07/12 03:12:16;;;;;;;;;;;24.50;56.70;;;;;;5038821;28;19927;-58
2023/07/12 03:14:43;;;;;;;;;;;24.60;56.70;;;;;;5038690;28;19927;-57
2023/07/12 03:17:10;;;;;;;;;;;24.60;56.70;;;;;;5039860;28;19928;-58
2023/07/12 03:19:37;;;;;;;;;;;24.50;56.70;;;;;;5039687;28;19921;-58
2023/07/12 03:22:05;;;;;;;;;;;24.60;56.70;;;;;;5056780;28;19924;-58
2023/07/12 03:24:32;;;;;;;;;;;24.60;56.60;;;;;;5038612;28;19927;-58
2023/07/12 03:26:59;;;;;;;;;;;24.60;56.60;;;;;;5038046;28;19920;-58
2023/07/12 03:29:26;;;;;;;;;;;24.60;56.50;;;;;;5038562;28;19920;-58
2023/07/12 03:31:53;;;;;;;;;;;24.60;56.60;;;;;;5055994;28;19920;-57
2023/07/12 03:34:20;;;;;;;;;;;24.60;56.50;;;;;;5039620;28;19928;-56
2023/07/12 03:36:47;;;;;;;;;;;24.50;56.50;;;;;;5038823;28;20298;-57
2023/07/12 03:39:15;;;;;;;;;;;24.60;56.60;;;;;;5039898;28;19975;-58
2023/07/12 03:41:42;;;;;;;;;;;24.60;56.50;;;;;;5038643;28;19921;-60
2023/07/12 03:44:09;;;;;;;;;;;24.60;56.60;;;;;;5039035;28;19924;-58
2023/07/12 03:46:36;;;;;;;;;;;24.60;56.60;;;;;;5038284;28;19943;-58
2023/07/12 03:49:02;;;;;;;;;;;24.60;56.60;;;;;;5055838;28;19975;-56
2023/07/12 03:51:29;;;;;;;;;;;24.60;56.50;;;;;;5038226;28;19921;-58
2023/07/12 03:53:56;;;;;;;;;;;24.60;56.50;;;;;;5038122;28;19974;-56
2023/07/12 03:56:25;;;;;;;;;;;24.60;56.50;;;;;;5038393;28;19921;-55
2023/07/12 03:58:51;;;;;;;;;;;24.60;56.50;;;;;;5038237;28;19925;-57
2023/07/12 04:01:19;;;;;;;;;;;24.60;56.50;;;;;;5038152;28;19925;-58
2023/07/12 04:03:46;;;;;;;;;;;24.60;56.60;;;;;;5038242;28;19920;-58
2023/07/12 04:06:13;;;;;;;;;;;24.60;56.50;;;;;;5037815;28;20032;-58
2023/07/12 04:08:40;;;;;;;;;;;24.60;56.50;;;;;;5053394;28;19928;-58
2023/07/12 04:11:07;;;;;;;;;;;24.60;56.60;;;;;;5037512;28;19921;-58
2023/07/12 04:13:35;;;;;;;;;;;24.60;56.60;;;;;;5038369;28;19921;-58
2023/07/12 04:16:02;;;;;;;;;;;24.60;56.50;;;;;;5038119;28;19921;-57
2023/07/12 04:18:28;;;;;;;;;;;24.60;56.60;;;;;;5055158;28;19920;-58
2023/07/12 04:20:58;;;;;;;;;;;24.60;56.60;;;;;;5037388;28;19924;-57
2023/07/12 04:23:25;;;;;;;;;;;24.60;56.70;;;;;;5038039;28;19924;-58
2023/07/12 04:25:57;;;;;;;;;;;24.60;56.70;;;;;;5036963;28;19927;-58
2023/07/12 04:28:24;;;;;;;;;;;24.60;56.80;;;;;;5037791;28;19921;-57
2023/07/12 04:30:52;;;;;;;;;;;24.60;56.80;;;;;;5037345;28;19921;-58
2023/07/12 04:33:19;;;;;;;;;;;24.60;56.90;;;;;;5037737;28;19927;-57
2023/07/12 04:35:46;;;;;;;;;;;24.60;56.90;;;;;;5055035;28;19921;-58
2023/07/12 04:38:12;;;;;;;;;;;24.60;56.90;;;;;;5037045;28;19921;-57
2023/07/12 04:40:39;;;;;;;;;;;24.60;56.90;;;;;;5037758;28;19925;-57
2023/07/12 04:43:06;;;;;;;;;;;24.60;57.00;;;;;;5034682;28;19921;-57
2023/07/12 04:45:33;;;;;;;;;;;24.60;57.00;;;;;;5037923;28;19927;-58
2023/07/12 04:48:01;;;;;;;;;;;24.60;57.10;;;;;;5037688;28;19968;-57
2023/07/12 04:50:28;;;;;;;;;;;24.60;57.10;;;;;;5054692;28;19921;-58
2023/07/12 04:52:55;;;;;;;;;;;24.60;57.20;;;;;;5054573;28;19929;-58
2023/07/12 04:55:22;;;;;;;;;;;24.60;57.20;;;;;;5020642;28;19921;-57
2023/07/12 04:57:50;;;;;;;;;;;24.60;57.30;;;;;;5036744;28;19924;-58
2023/07/12 05:00:17;;;;;;;;;;;24.60;57.30;;;;;;5037169;28;19921;-58
2023/07/12 05:02:44;;;;;;;;;;;24.60;57.30;;;;;;5036762;28;20020;-55
2023/07/12 05:05:12;;;;;;;;;;;24.60;57.30;;;;;;5036976;28;19928;-57
2023/07/12 05:07:40;;;;;;;;;;;24.60;57.20;;;;;;5036958;28;19921;-57
2023/07/12 05:10:08;;;;;;;;;;;24.60;57.30;;;;;;5054845;28;19928;-57
2023/07/12 05:12:38;;;;;;;;;;;24.60;57.30;;;;;;5037585;28;19921;-57
2023/07/12 05:15:06;;;;;;;;;;;24.60;57.30;;;;;;5034686;28;19921;-57
2023/07/12 05:17:33;;;;;;;;;;;24.60;57.30;;;;;;5036595;28;19988;-57
2023/07/12 05:20:00;;;;;;;;;;;24.60;57.40;;;;;;5053153;28;20007;-57
2023/07/12 05:22:28;;;;;;;;;;;24.60;57.40;;;;;;5034750;28;19921;-57
2023/07/12 05:24:56;;;;;;;;;;;24.60;57.40;;;;;;5036351;28;19921;-57
2023/07/12 05:27:23;;;;;;;;;;;24.60;57.40;;;;;;5036644;28;19935;-57
2023/07/12 05:29:50;;;;;;;;;;;24.60;57.40;;;;;;5036848;28;19927;-57
2023/07/12 05:32:17;;;;;;;;;;;24.60;57.50;;;;;;5037307;28;19974;-57
2023/07/12 05:34:43;;;;;;;;;;;24.60;57.50;;;;;;5035042;28;19921;-59
2023/07/12 05:37:10;;;;;;;;;;;24.60;57.50;;;;;;5036713;28;19921;-57
2023/07/12 05:39:39;;;;;;;;;;;24.60;57.50;;;;;;5052438;28;19921;-57
2023/07/12 05:42:06;;;;;;;;;;;24.60;57.50;;;;;;5036657;28;19925;-57
2023/07/12 05:44:33;;;;;;;;;;;24.60;57.50;;;;;;5037263;28;19921;-58
2023/07/12 05:47:00;;;;;;;;;;;24.60;57.60;;;;;;5037471;28;19921;-57
2023/07/12 05:49:27;;;;;;;;;;;24.60;57.60;;;;;;5034720;28;19921;-57
2023/07/12 05:51:54;;;;;;;;;;;24.60;57.70;;;;;;5040329;28;19921;-57
2023/07/12 05:54:20;;;;;;;;;;;24.60;57.70;;;;;;5039866;28;19920;-57
2023/07/12 05:56:49;;;;;;;;;;;24.60;57.70;;;;;;5040391;28;19921;-57
2023/07/12 05:59:16;;;;;;;;;;;24.60;57.70;;;;;;5040175;28;19925;-57
2023/07/12 06:01:43;;;;;;;;;;;24.60;57.70;;;;;;5057717;28;19936;-58
2023/07/12 06:04:11;;;;;;;;;;;24.60;57.70;;;;;;5038638;28;19921;-58
2023/07/12 06:06:37;;;;;;;;;;;24.60;57.70;;;;;;5057038;28;19921;-58
2023/07/12 06:09:07;;;;;;;;;;;24.60;57.70;;;;;;5038245;28;19928;-58
2023/07/12 06:11:34;;;;;;;;;;;24.60;57.70;;;;;;5040074;28;19948;-58
2023/07/12 06:14:02;;;;;;;;;;;24.50;57.60;;;;;;5040235;28;19920;-58
2023/07/12 06:16:29;;;;;;;;;;;24.60;57.70;;;;;;5039894;28;19921;-58
2023/07/12 06:18:56;;;;;;;;;;;24.50;57.70;;;;;;5051255;28;20113;-58
2023/07/12 06:21:24;;;;;;;;;;;24.60;57.90;;;;;;5036380;28;19935;-58
2023/07/12 06:23:51;;;;;;;;;;;24.50;57.90;;;;;;5051769;28;19939;-58
2023/07/12 06:26:18;;;;;;;;;;;24.50;58.00;;;;;;5028650;28;19921;-58
2023/07/12 06:28:45;;;;;;;;;;;24.60;58.10;;;;;;5033381;28;19925;-58
2023/07/12 06:31:13;;;;;;;;;;;24.50;58.00;;;;;;5052304;28;19924;-58
2023/07/12 06:33:40;;;;;;;;;;;24.50;58.00;;;;;;5035657;28;19924;-58
2023/07/12 06:36:07;;;;;;;;;;;24.50;58.00;;;;;;5031945;28;19924;-57
2023/07/12 06:38:34;;;;;;;;;;;24.50;58.10;;;;;;5032134;28;19921;-58
2023/07/12 06:41:00;;;;;;;;;;;24.50;58.00;;;;;;5053871;28;19924;-58
2023/07/12 06:43:27;;;;;;;;;;;24.50;58.00;;;;;;5036147;28;19927;-58
2023/07/12 06:45:55;;;;;;;;;;;24.50;58.00;;;;;;5034798;28;19921;-58
2023/07/12 06:48:23;;;;;;;;;;;24.50;58.00;;;;;;5053813;28;20350;-57
2023/07/12 06:50:50;;;;;;;;;;;24.50;58.10;;;;;;5056840;28;19927;-57
2023/07/12 06:53:17;;;;;;;;;;;24.40;58.00;;;;;;5038641;28;19928;-57
2023/07/12 06:55:44;;;;;;;;;;;24.40;58.10;;;;;;5038587;28;19959;-56
2023/07/12 06:58:11;;;;;;;;;;;24.50;58.20;;;;;;5039349;28;19952;-57
2023/07/12 07:00:39;;;;;;;;;;;24.50;58.30;;;;;;5039128;28;19925;-56
2023/07/12 07:03:08;;;;;;;;;;;24.40;58.30;;;;;;5038283;28;19921;-57
2023/07/12 07:05:36;;;;;;;;;;;24.50;58.40;;;;;;5056194;28;19921;-57
2023/07/12 07:08:04;;;;;;;;;;;24.40;58.30;;;;;;5056280;28;20003;-57
2023/07/12 07:10:31;;;;;;;;;;;24.40;58.40;;;;;;5039041;28;19927;-57
2023/07/12 07:12:57;;;;;;;;;;;24.40;58.40;;;;;;5038000;28;19921;-57
2023/07/12 07:15:24;;;;;;;;;;;24.40;58.50;;;;;;5037860;28;19927;-56
2023/07/12 07:17:51;;;;;;;;;;;24.40;58.50;;;;;;5037909;28;19928;-56
2023/07/12 07:20:18;;;;;;;;;;;24.40;58.50;;;;;;5038207;28;19924;-57
2023/07/12 07:22:46;;;;;;;;;;;24.40;58.60;;;;;;5038264;28;19925;-57
2023/07/12 07:25:13;;;;;;;;;;;24.40;58.50;;;;;;5055742;28;19921;-56
2023/07/12 07:27:40;;;;;;;;;;;24.40;58.40;;;;;;5038269;28;19921;-56
2023/07/12 07:30:07;;;;;;;;;;;24.40;58.20;;;;;;5038729;28;19943;-56
2023/07/12 07:32:34;;;;;;;;;;;24.40;58.10;;;;;;5055523;28;19987;-57
2023/07/12 07:35:00;;;;;;;;;;;24.40;57.90;;;;;;5037553;28;19927;-57
2023/07/12 07:37:27;;;;;;;;;;;24.40;57.70;;;;;;5038012;28;19938;-56
2023/07/12 07:39:56;;;;;;;;;;;24.30;57.40;;;;;;5038173;28;19921;-57
2023/07/12 07:42:22;;;;;;;;;;;24.30;57.20;;;;;;5037631;28;19921;-57
2023/07/12 07:44:49;;;;;;;;;;;24.30;57.00;;;;;;5055075;28;19920;-57
2023/07/12 07:47:16;;;;;;;;;;;24.30;56.90;;;;;;5037388;28;19928;-57
2023/07/12 07:49:43;;;;;;;;;;;24.30;56.80;;;;;;5055314;28;20003;-57
2023/07/12 07:52:10;;;;;;;;;;;24.20;56.50;;;;;;5038285;28;19920;-57
2023/07/12 07:54:39;;;;;;;;;;;24.30;56.50;;;;;;5057498;28;19924;-57
2023/07/12 07:57:08;;;;;;;;;;;24.20;56.40;;;;;;5037392;28;19927;-57
2023/07/12 07:59:35;;;;;;;;;;;24.20;56.40;;;;;;5054989;28;19924;-57
2023/07/12 08:02:01;;;;;;;;;;;24.20;56.30;;;;;;5037979;28;19921;-57
2023/07/12 08:04:28;;;;;;;;;;;24.20;56.30;;;;;;5037100;28;19924;-57
2023/07/12 08:06:56;;;;;;;;;;;24.20;56.30;;;;;;5020729;28;19982;-57
2023/07/12 08:09:23;;;;;;;;;;;24.10;56.20;;;;;;5037273;28;19921;-57
2023/07/12 08:11:50;;;;;;;;;;;24.10;56.20;;;;;;5037537;28;19921;-57
2023/07/12 08:14:20;;;;;;;;;;;24.10;56.10;;;;;;5036572;28;20030;-57
2023/07/12 08:16:48;;;;;;;;;;;24.10;56.10;;;;;;5036965;28;19936;-57
2023/07/12 08:19:15;;;;;;;;;;;24.10;56.00;;;;;;5037198;28;20015;-58
2023/07/12 08:21:42;;;;;;;;;;;24.10;55.90;;;;;;5037696;28;19951;-58
2023/07/12 08:24:08;;;;;;;;;;;24.10;55.80;;;;;;5054702;28;19921;-57
2023/07/12 08:26:36;;;;;;;;;;;24.10;55.70;;;;;;5054621;28;19924;-57
2023/07/12 08:29:02;;;;;;;;;;;24.10;55.70;;;;;;5036769;28;20029;-57
2023/07/12 08:31:31;;;;;;;;;;;24.10;55.70;;;;;;5036851;28;19979;-59
2023/07/12 08:33:58;;;;;;;;;;;24.10;55.70;;;;;;5036862;28;19921;-57
2023/07/12 08:36:25;;;;;;;;;;;24.10;55.60;;;;;;5036781;28;19928;-58
2023/07/12 08:38:51;;;;;;;;;;;24.10;56.20;;;;;;5037355;28;19920;-58
2023/07/12 08:41:20;;;;;;;;;;;24.10;55.60;;;;;;5036343;28;19927;-58
2023/07/12 08:43:46;;;;;;;;;;;24.00;55.40;;;;;;5037412;28;19921;-58
2023/07/12 08:46:15;;;;;;;;;;;24.10;55.50;;;;;;5036600;28;19921;-58
2023/07/12 08:48:43;;;;;;;;;;;24.00;55.40;;;;;;5054272;28;19921;-58
2023/07/12 08:51:13;;;;;;;;;;;24.00;55.40;;;;;;5037104;28;19925;-58
2023/07/12 08:53:40;;;;;;;;;;;24.00;55.30;;;;;;5054161;28;19940;-58
2023/07/12 08:56:09;;;;;;;;;;;24.00;55.30;;;;;;5036150;28;19921;-58
2023/07/12 08:58:36;;;;;;;;;;;24.00;55.20;;;;;;5036967;28;19920;-58
2023/07/12 09:01:04;;;;;;;;;;;24.00;55.20;;;;;;5054185;28;19928;-58
2023/07/12 09:03:31;;;;;;;;;;;24.00;55.10;;;;;;5036774;28;20355;-58
2023/07/12 09:05:59;;;;;;;;;;;24.00;55.10;;;;;;5036572;28;19925;-58
2023/07/12 09:08:28;;;;;;;;;;;24.00;55.10;;;;;;5054117;28;19921;-58
2023/07/12 09:10:56;;;;;;;;;;;24.00;55.10;;;;;;5036352;28;19929;-58
2023/07/12 09:13:22;;;;;;;;;;;24.00;55.10;;;;;;5036318;28;19928;-58
2023/07/12 09:15:50;;;;;;;;;;;24.00;55.10;;;;;;5036874;28;19969;-58
2023/07/12 09:18:28;;;;;;;;;;;24.00;55.00;;;;;;5036464;28;19921;-58
2023/07/12 09:20:55;;;;;;;;;;;24.00;54.90;;;;;;5053811;28;19921;-58
2023/07/12 09:23:23;;;;;;;;;;;24.00;54.80;;;;;;5036457;28;19999;-58
2023/07/12 09:25:53;;;;;;;;;;;24.00;54.70;;;;;;5039011;28;19925;-58
2023/07/12 09:28:20;;;;;;;;;;;24.00;54.60;;;;;;5008122;28;19931;-58
2023/07/12 09:30:47;;;;;;;;;;;23.90;54.60;;;;;;5020683;28;19921;-58
2023/07/12 09:33:16;;;;;;;;;;;24.00;54.70;;;;;;5036897;28;19929;-56
2023/07/12 09:35:45;;;;;;;;;;;23.90;54.60;;;;;;5020571;28;19921;-57
2023/07/12 09:38:13;;;;;;;;;;;23.90;54.60;;;;;;5038180;28;19929;-57
2023/07/12 09:40:41;;;;;;;;;;;24.00;54.70;;;;;;5020354;28;19968;-57
2023/07/12 09:43:13;;;;;;;;;;;23.90;54.60;;;;;;5021156;28;19971;-58
2023/07/12 09:45:41;;;;;;;;;;;24.00;54.60;;;;;;5020048;28;19925;-56
2023/07/12 09:48:10;;;;;;;;;;;23.90;54.50;;;;;;5020429;28;19925;-59
2023/07/12 09:50:38;;;;;;;;;;;23.90;54.50;;;;;;5020433;28;19921;-58
2023/07/12 09:53:06;;;;;;;;;;;23.90;54.50;;;;;;5036732;28;19922;-57
2023/07/12 09:55:39;;;;;;;;;;;23.90;54.50;;;;;;5037176;28;19975;-58
2023/07/12 09:58:10;;;;;;;;;;;23.90;54.50;;;;;;5036639;28;19925;-55
2023/07/12 10:00:39;;;;;;;;;;;23.90;54.50;;;;;;5037311;28;19921;-58
2023/07/12 10:03:11;;;;;;;;;;;24.00;54.60;;;;;;5036105;28;20033;-58
2023/07/12 10:05:38;;;;;;;;;;;23.90;54.50;;;;;;5019859;28;20008;-59
2023/07/12 10:08:05;;;;;;;;;;;24.00;54.40;;;;;;5019747;28;19921;-58
2023/07/12 10:10:33;;;;;;;;;;;24.00;54.30;;;;;;5037685;28;19921;-58
2023/07/12 10:13:02;;;;;;;;;;;24.00;54.20;;;;;;5020146;28;19929;-58
2023/07/12 10:15:33;;;;;;;;;;;23.90;54.00;;;;;;5037282;28;19928;-56
2023/07/12 10:17:59;;;;;;;;;;;23.90;53.90;;;;;;5019807;28;19921;-57
2023/07/12 10:20:26;;;;;;;;;;;23.90;53.80;;;;;;5020366;28;19928;-56
2023/07/12 10:22:53;;;;;;;;;;;23.90;53.80;;;;;;5019587;28;19921;-58
2023/07/12 10:25:21;;;;;;;;;;;23.90;53.80;;;;;;5037112;28;19921;-58
2023/07/12 10:27:50;;;;;;;;;;;23.90;53.70;;;;;;5036230;28;19921;-56
2023/07/12 10:30:17;;;;;;;;;;;24.00;53.70;;;;;;5020100;28;19928;-58
2023/07/12 10:32:46;;;;;;;;;;;23.90;53.60;;;;;;5036791;28;19939;-57
2023/07/12 10:35:16;;;;;;;;;;;23.90;53.60;;;;;;5019097;28;19921;-57
2023/07/12 10:37:44;;;;;;;;;;;23.90;53.60;;;;;;5036122;28;19988;-58
2023/07/12 10:40:13;;;;;;;;;;;23.90;53.60;;;;;;5035349;28;19929;-57
2023/07/12 10:42:40;;;;;;;;;;;23.90;53.60;;;;;;5019684;28;20023;-58
2023/07/12 10:45:08;;;;;;;;;;;23.90;53.60;;;;;;5019231;28;19921;-57
2023/07/12 10:47:35;;;;;;;;;;;23.90;53.40;;;;;;5035628;28;19921;-56
2023/07/12 10:50:06;;;;;;;;;;;23.90;53.30;;;;;;5019487;28;19925;-57
2023/07/12 10:52:33;;;;;;;;;;;23.90;53.20;;;;;;5019322;28;19921;-57
2023/07/12 10:55:17;;;;;;;;;;;23.90;53.30;;;;;;5019440;28;19929;-56
2023/07/12 10:57:46;;;;;;;;;;;24.00;53.30;;;;;;5019707;28;19921;-57
2023/07/12 11:00:23;;;;;;;;;;;23.90;53.90;;;;;;5036104;28;19928;-60
2023/07/12 11:02:59;;;;;;;;;;;23.90;53.30;;;;;;5019305;28;19956;-57
2023/07/12 11:05:42;;;;;;;;;;;24.00;53.40;;;;;;5019229;28;19921;-58
2023/07/12 11:08:28;;;;;;;;;;;23.90;53.30;;;;;;5036731;28;19921;-57
2023/07/12 11:10:55;;;;;;;;;;;24.00;53.30;;;;;;5035046;28;19921;-59
2023/07/12 11:13:22;;;;;;;;;;;24.00;53.20;;;;;;5018685;28;19948;-58
2023/07/12 11:15:49;;;;;;;;;;;24.00;53.10;;;;;;5035018;28;20031;-58
2023/07/12 11:18:23;;;;;;;;;;;24.00;53.10;;;;;;5036383;28;19928;-58
2023/07/12 11:20:58;;;;;;;;;;;24.00;53.20;;;;;;5033704;28;19921;-56
2023/07/12 11:23:28;;;;;;;;;;;24.00;53.20;;;;;;5036421;28;19932;-58
2023/07/12 11:25:58;;;;;;;;;;;24.00;53.20;;;;;;5034233;28;19922;-57
2023/07/12 11:28:28;;;;;;;;;;;24.00;53.10;;;;;;5018436;28;19921;-58
2023/07/12 11:31:05;;;;;;;;;;;24.00;53.10;;;;;;5018314;28;19964;-58
2023/07/12 11:33:31;;;;;;;;;;;24.00;53.00;;;;;;5045000;28;19989;-58
2023/07/12 11:36:01;;;;;;;;;;;24.00;52.90;;;;;;5030222;28;20011;-58
2023/07/12 11:38:29;;;;;;;;;;;24.00;52.90;;;;;;5019035;28;19967;-57
2023/07/12 11:40:56;;;;;;;;;;;24.00;52.80;;;;;;5036790;28;20008;-57
2023/07/12 11:43:34;;;;;;;;;;;24.00;52.80;;;;;;5036775;28;19921;-58
2023/07/12 11:46:01;;;;;;;;;;;24.00;52.80;;;;;;5018410;28;19971;-58
2023/07/12 11:48:29;;;;;;;;;;;24.00;52.80;;;;;;5042386;28;19931;-58
2023/07/12 11:50:56;;;;;;;;;;;24.00;52.80;;;;;;5033766;28;19929;-57
2023/07/12 11:53:24;;;;;;;;;;;24.00;52.80;;;;;;5038588;28;19936;-56
2023/07/12 11:55:51;;;;;;;;;;;24.00;52.70;;;;;;5038413;28;19975;-58
2023/07/12 11:58:19;;;;;;;;;;;24.00;52.60;;;;;;5037830;28;19967;-58
2023/07/12 12:00:46;;;;;;;;;;;24.00;52.60;;;;;;5035229;28;19929;-58
2023/07/12 12:03:13;;;;;;;;;;;24.00;52.40;;;;;;5024868;28;19925;-59
2023/07/12 12:05:40;;;;;;;;;;;24.00;52.20;;;;;;5021097;28;19924;-58
2023/07/12 12:08:07;;;;;;;;;;;24.00;52.20;;;;;;5037663;28;19921;-58
2023/07/12 12:10:37;;;;;;;;;;;24.00;52.20;;;;;;5035143;28;19928;-58
2023/07/12 12:13:15;;;;;;;;;;;24.00;52.20;;;;;;5027603;28;19961;-57
2023/07/12 12:15:44;;;;;;;;;;;24.00;52.10;;;;;;5042889;28;19928;-57
2023/07/12 12:18:13;;;;;;;;;;;24.10;52.20;;;;;;5030101;28;19921;-57
2023/07/12 12:20:40;;;;;;;;;;;24.00;52.10;;;;;;5030582;28;19964;-58
2023/07/12 12:23:12;;;;;;;;;;;24.00;52.00;;;;;;5031287;28;19920;-58
2023/07/12 12:25:45;;;;;;;;;;;24.10;52.10;;;;;;5029463;28;19927;-59
2023/07/12 12:28:13;;;;;;;;;;;24.00;51.90;;;;;;5030075;28;19921;-59
2023/07/12 12:30:40;;;;;;;;;;;24.10;52.50;;;;;;5030434;28;19925;-58
2023/07/12 12:33:22;;;;;;;;;;;24.10;51.90;;;;;;5048193;28;19921;-57
2023/07/12 12:35:55;;;;;;;;;;;24.10;51.80;;;;;;5029249;28;19987;-57
2023/07/12 12:38:23;;;;;;;;;;;24.10;51.70;;;;;;5029021;28;20032;-57
2023/07/12 12:40:56;;;;;;;;;;;24.10;51.70;;;;;;5029088;28;19939;-58
2023/07/12 12:43:25;;;;;;;;;;;24.10;51.70;;;;;;5032980;28;19971;-57
2023/07/12 12:45:54;;;;;;;;;;;24.10;51.80;;;;;;5049480;28;19920;-58
2023/07/12 12:48:21;;;;;;;;;;;24.10;51.80;;;;;;5054348;28;19920;-59
2023/07/12 12:50:50;;;;;;;;;;;24.10;51.80;;;;;;5032043;28;19921;-58
2023/07/12 12:53:18;;;;;;;;;;;24.10;51.70;;;;;;5031796;28;19956;-59
2023/07/12 12:55:47;;;;;;;;;;;24.10;51.70;;;;;;5031878;28;19928;-58
2023/07/12 12:58:15;;;;;;;;;;;24.10;52.20;;;;;;5030510;28;19925;-58
2023/07/12 13:00:42;;;;;;;;;;;24.10;51.60;;;;;;5026704;28;19921;-58
2023/07/12 13:03:10;;;;;;;;;;;24.10;51.50;;;;;;5031696;28;20023;-58
2023/07/12 13:05:37;;;;;;;;;;;24.10;51.50;;;;;;5046782;28;19982;-57
2023/07/12 13:08:05;;;;;;;;;;;24.10;51.30;;;;;;5050068;28;19925;-58
2023/07/12 13:10:32;;;;;;;;;;;24.10;51.30;;;;;;5034889;28;19939;-58
2023/07/12 13:12:59;;;;;;;;;;;24.10;51.10;;;;;;5028932;28;19932;-59
2023/07/12 13:15:27;;;;;;;;;;;24.10;51.10;;;;;;5030445;28;20015;-60
2023/07/12 13:17:54;;;;;;;;;;;24.10;51.10;;;;;;5049382;28;19925;-58
2023/07/12 13:20:21;;;;;;;;;;;24.10;51.40;;;;;;5030870;28;19932;-59
2023/07/12 13:22:48;;;;;;;;;;;24.10;51.70;;;;;;5029599;28;20024;-58
2023/07/12 13:25:15;;;;;;;;;;;24.10;52.20;;;;;;5048374;28;19921;-58
2023/07/12 13:27:43;;;;;;;;;;;24.10;52.70;;;;;;5031658;28;19959;-58
2023/07/12 13:30:14;;;;;;;;;;;24.10;53.20;;;;;;5024309;28;19920;-58
2023/07/12 13:32:42;;;;;;;;;;;24.10;53.50;;;;;;5030665;28;19925;-59
2023/07/12 13:35:10;;;;;;;;;;;24.10;54.00;;;;;;5029931;28;19974;-57
2023/07/12 13:37:38;;;;;;;;;;;24.10;54.30;;;;;;5030427;28;19920;-59
2023/07/12 13:40:06;;;;;;;;;;;24.10;54.60;;;;;;5031454;28;19925;-58
2023/07/12 13:42:33;;;;;;;;;;;24.10;54.80;;;;;;5027918;28;19929;-58
2023/07/12 13:45:00;;;;;;;;;;;24.10;54.90;;;;;;5035286;28;19921;-58
2023/07/12 13:47:28;;;;;;;;;;;24.10;55.00;;;;;;5010154;28;19943;-58
2023/07/12 13:49:56;;;;;;;;;;;24.10;55.10;;;;;;5027912;28;19925;-59
2023/07/12 13:52:24;;;;;;;;;;;24.10;55.20;;;;;;5026302;28;19921;-58
2023/07/12 13:54:50;;;;;;;;;;;24.10;55.30;;;;;;5027693;28;19921;-58
2023/07/12 13:57:19;;;;;;;;;;;24.10;55.30;;;;;;5048656;28;19924;-58
2023/07/12 13:59:46;;;;;;;;;;;24.10;55.20;;;;;;5027436;28;19932;-58
2023/07/12 14:02:17;;;;;;;;;;;24.10;55.30;;;;;;5036192;28;20023;-59
2023/07/12 14:04:43;;;;;;;;;;;24.10;55.30;;;;;;5036331;28;19925;-60
2023/07/12 14:07:12;;;;;;;;;;;24.10;55.30;;;;;;5025131;28;20014;-60
2023/07/12 14:09:38;;;;;;;;;;;24.10;55.70;;;;;;5032347;28;19924;-59
2023/07/12 14:12:06;;;;;;;;;;;24.10;56.10;;;;;;5038394;28;19920;-59
2023/07/12 14:14:33;;;;;;;;;;;24.10;56.20;;;;;;5054453;28;19921;-60
2023/07/12 14:16:59;;;;;;;;;;;24.10;56.40;;;;;;5021413;28;19964;-59
2023/07/12 14:19:26;;;;;;;;;;;24.10;56.40;;;;;;5033986;28;19928;-59